Time;durP1;ratioP1;P1;durP2;ratioP2;P2;SDS_P1;SDS_P2;PMS_P1;PMS_P2;Temp;Humidity;BMP_temperature;BMP_pressure;BME280_temperature;BME280_humidity;BME280_pressure;Samples;Min_cycle;Max_cycle;Signal;HPM_P1;HPM_P2
2021/12/24 00:00:02;;;;;;;;;;;;;;;26.81;20.04;96595.22;172445;28;1113;-47
2021/12/24 00:00:07;;;;;;;;;;;;;;;26.81;20.24;96587.31;171942;28;904;-49
2021/12/24 00:00:13;;;;;;;;;;;;;;;26.80;20.29;96592.75;172614;28;782;-47
2021/12/24 00:00:19;;;;;;;;;;;;;;;26.79;20.03;96593.72;172434;28;947;-46
2021/12/24 00:00:24;;;;;;;;;;;;;;;26.80;20.05;96590.09;172582;28;826;-46
2021/12/24 00:00:29;;;;;;;;;;;;;;;26.81;20.13;96591.75;172590;28;869;-47
2021/12/24 00:00:35;;;;;;;;;;;;;;;26.81;20.05;96594.41;172451;28;1260;-46
2021/12/24 00:00:43;;;;;;;;;;;;;;;26.78;20.05;96584.09;172679;28;920;-46
2021/12/24 00:00:48;;;;;;;;;;;;;;;26.79;19.88;96591.09;172327;28;838;-46
2021/12/24 00:00:54;;;;;;;;;;;;;;;26.80;20.32;96590.09;172469;28;1178;-46
2021/12/24 00:00:59;;;;;;;;;;;;;;;26.80;20.21;96590.09;172615;28;889;-47
2021/12/24 00:01:05;;;;;;;;;;;;;;;26.79;20.24;96591.09;172542;28;884;-45
2021/12/24 00:01:17;;;;;;;;;;;;;;;26.74;20.25;96582.78;171947;28;786;-47
2021/12/24 00:01:23;;;;;;;;;;;;;;;26.79;20.25;96583.97;171906;28;787;-46
2021/12/24 00:01:28;;;;;;;;;;;;;;;26.79;20.38;96591.09;172119;28;861;-47
2021/12/24 00:01:33;;;;;;;;;;;;;;;26.81;20.21;96586.47;172453;28;1161;-46
2021/12/24 00:01:38;;;;;;;;;;;;;;;26.77;20.20;96591.22;172660;28;928;-46
2021/12/24 00:01:43;;;;;;;;;;;;;;;26.78;20.01;96582.31;172642;28;1197;-47
2021/12/24 00:01:49;;;;;;;;;;;;;;;26.79;20.10;96583.97;172399;28;754;-46
2021/12/24 00:01:54;;;;;;;;;;;;;;;26.79;19.97;96589.28;172172;28;1367;-46
2021/12/24 00:01:59;;;;;;;;;;;;;;;26.81;20.04;96589.94;172255;28;986;-47
2021/12/24 00:02:05;;;;;;;;;;;;;;;26.79;20.09;96583.97;172453;28;951;-46
2021/12/24 00:02:10;;;;;;;;;;;;;;;26.77;20.19;96583.28;172673;28;899;-47
2021/12/24 00:02:15;;;;;;;;;;;;;;;26.72;20.31;96585.56;172517;28;936;-47
2021/12/24 00:02:20;;;;;;;;;;;;;;;26.74;19.99;96583.59;172578;28;1098;-46
2021/12/24 00:02:25;;;;;;;;;;;;;;;26.78;20.37;96581.47;172652;28;767;-46
2021/12/24 00:02:30;;;;;;;;;;;;;;;26.80;20.23;96582.16;172478;28;1145;-46
2021/12/24 00:02:36;;;;;;;;;;;;;;;26.80;20.05;96588.28;172628;28;838;-48
2021/12/24 00:02:41;;;;;;;;;;;;;;;26.80;20.29;96585.66;172372;28;1086;-46
2021/12/24 00:02:47;;;;;;;;;;;;;;;26.79;20.05;96589.28;172431;28;620;-46
2021/12/24 00:02:54;;;;;;;;;;;;;;;26.76;20.17;96578.97;172424;28;1041;-47
2021/12/24 00:02:59;;;;;;;;;;;;;;;26.80;20.26;96576.88;172385;28;1152;-46
2021/12/24 00:03:04;;;;;;;;;;;;;;;26.81;20.06;96578.53;172474;28;1058;-46
2021/12/24 00:03:10;;;;;;;;;;;;;;;26.81;20.05;96579.38;172571;28;972;-46
2021/12/24 00:03:15;;;;;;;;;;;;;;;26.82;20.23;96581.03;172412;28;1002;-47
2021/12/24 00:03:20;;;;;;;;;;;;;;;26.84;19.99;96580.88;172606;28;798;-46
2021/12/24 00:03:25;;;;;;;;;;;;;;;26.83;20.00;96580.03;172537;28;944;-46
2021/12/24 00:03:30;;;;;;;;;;;;;;;26.85;20.21;96582.53;172381;28;1034;-46
2021/12/24 00:03:36;;;;;;;;;;;;;;;26.84;20.11;96575.56;172535;28;1070;-46
2021/12/24 00:03:41;;;;;;;;;;;;;;;26.84;19.91;96570.28;171981;28;4267;-47
2021/12/24 00:03:46;;;;;;;;;;;;;;;26.83;20.11;96579.19;172458;28;1008;-47
2021/12/24 00:03:51;;;;;;;;;;;;;;;26.83;19.89;96579.19;172441;28;1092;-47
2021/12/24 00:03:57;;;;;;;;;;;;;;;26.82;20.09;96577.53;172405;28;825;-46
2021/12/24 00:04:02;;;;;;;;;;;;;;;26.81;20.31;96581.19;172418;28;1073;-46
2021/12/24 00:04:09;;;;;;;;;;;;;;;26.80;20.24;96584.81;172596;28;933;-46
2021/12/24 00:04:14;;;;;;;;;;;;;;;26.75;20.04;96579.13;172315;28;1030;-47
2021/12/24 00:04:19;;;;;;;;;;;;;;;26.75;20.30;96582.59;172534;28;786;-46
2021/12/24 00:04:25;;;;;;;;;;;;;;;26.77;20.36;96583.28;172533;28;873;-46
2021/12/24 00:04:30;;;;;;;;;;;;;;;26.79;20.10;96572.56;172449;28;1168;-48
2021/12/24 00:04:35;;;;;;;;;;;;;;;26.79;20.00;96580.50;172611;28;924;-47
2021/12/24 00:04:40;;;;;;;;;;;;;;;26.79;20.25;96575.22;172884;28;1220;-45
2021/12/24 00:04:45;;;;;;;;;;;;;;;26.81;19.96;96576.72;172953;28;952;-46
2021/12/24 00:04:51;;;;;;;;;;;;;;;26.82;20.02;96572.25;172780;28;1134;-47
2021/12/24 00:04:56;;;;;;;;;;;;;;;26.80;19.93;96569.78;172484;28;793;-46
2021/12/24 00:05:01;;;;;;;;;;;;;;;26.83;19.89;96577.38;172382;28;1128;-47
2021/12/24 00:05:06;;;;;;;;;;;;;;;26.85;20.23;96579.88;172644;28;932;-47
2021/12/24 00:05:11;;;;;;;;;;;;;;;26.86;19.98;96578.88;172431;28;1000;-47
2021/12/24 00:05:17;;;;;;;;;;;;;;;26.85;20.18;96572.78;172396;28;1229;-47
2021/12/24 00:05:22;;;;;;;;;;;;;;;26.85;20.21;96575.41;172400;28;1047;-46
2021/12/24 00:05:27;;;;;;;;;;;;;;;26.79;20.22;96572.56;172278;28;1090;-46
2021/12/24 00:05:33;;;;;;;;;;;;;;;26.80;20.22;96574.22;172565;28;876;-45
2021/12/24 00:05:38;;;;;;;;;;;;;;;26.77;20.35;96564.75;172497;28;1083;-47
2021/12/24 00:05:43;;;;;;;;;;;;;;;26.80;20.13;96576.88;172481;28;920;-47
2021/12/24 00:05:48;;;;;;;;;;;;;;;26.80;19.92;96574.22;172375;28;986;-46
2021/12/24 00:05:53;;;;;;;;;;;;;;;26.82;19.98;96575.72;172398;28;754;-47
2021/12/24 00:05:59;;;;;;;;;;;;;;;26.81;20.00;96576.72;171473;28;1481;-48
2021/12/24 00:06:04;;;;;;;;;;;;;;;26.81;19.93;96575.88;171633;28;1433;-46
2021/12/24 00:06:10;;;;;;;;;;;;;;;26.83;20.25;96582.69;172330;28;1028;-46
2021/12/24 00:06:15;;;;;;;;;;;;;;;26.82;20.11;96575.72;172438;28;1170;-48
2021/12/24 00:06:20;;;;;;;;;;;;;;;26.82;20.24;96575.72;172531;28;805;-47
2021/12/24 00:06:26;;;;;;;;;;;;;;;26.83;19.96;96580.03;171746;28;1607;-46
2021/12/24 00:06:31;;;;;;;;;;;;;;;26.85;20.02;96579.88;172498;28;849;-46
2021/12/24 00:06:36;;;;;;;;;;;;;;;26.81;20.00;96582.00;172451;28;998;-46
2021/12/24 00:06:41;;;;;;;;;;;;;;;26.78;20.06;96579.69;172558;28;1067;-46
2021/12/24 00:06:46;;;;;;;;;;;;;;;26.76;20.31;96584.28;172530;28;654;-46
2021/12/24 00:06:52;;;;;;;;;;;;;;;26.78;20.20;96584.97;171706;28;885;-47
2021/12/24 00:06:57;;;;;;;;;;;;;;;26.81;20.24;96574.06;171812;28;770;-47
2021/12/24 00:07:02;;;;;;;;;;;;;;;26.81;19.97;96576.72;172096;28;1043;-46
2021/12/24 00:07:07;;;;;;;;;;;;;;;26.83;20.38;96573.91;171779;28;775;-46
2021/12/24 00:07:12;;;;;;;;;;;;;;;26.82;20.16;96572.25;172522;28;1022;-46
2021/12/24 00:07:18;;;;;;;;;;;;;;;26.80;20.25;96576.88;172634;28;979;-47
2021/12/24 00:07:23;;;;;;;;;;;;;;;26.79;20.13;96573.41;172436;28;1094;-46
2021/12/24 00:07:28;;;;;;;;;;;;;;;26.78;20.11;96571.75;172576;28;830;-47
2021/12/24 00:07:33;;;;;;;;;;;;;;;26.80;20.24;96575.06;172492;28;940;-47
2021/12/24 00:07:38;;;;;;;;;;;;;;;26.81;19.98;96574.06;171824;28;4260;-49
2021/12/24 00:07:44;;;;;;;;;;;;;;;26.81;20.01;96570.59;172674;28;841;-46
2021/12/24 00:07:49;;;;;;;;;;;;;;;26.80;19.94;96574.22;172418;28;1030;-49
2021/12/24 00:07:54;;;;;;;;;;;;;;;26.79;20.25;96577.88;172533;28;964;-47
2021/12/24 00:07:59;;;;;;;;;;;;;;;26.78;20.28;96570.88;172410;28;1042;-46
2021/12/24 00:08:04;;;;;;;;;;;;;;;26.79;20.07;96572.56;172527;28;893;-47
2021/12/24 00:08:10;;;;;;;;;;;;;;;26.78;19.96;96569.09;172269;28;916;-47
2021/12/24 00:08:15;;;;;;;;;;;;;;;26.81;20.31;96568.78;172650;28;1063;-47
2021/12/24 00:08:20;;;;;;;;;;;;;;;26.80;20.06;96574.22;172473;28;881;-47
2021/12/24 00:08:25;;;;;;;;;;;;;;;26.76;20.29;96571.03;172565;28;1284;-47
2021/12/24 00:08:31;;;;;;;;;;;;;;;26.78;20.24;96573.53;172651;28;881;-46
2021/12/24 00:08:36;;;;;;;;;;;;;;;26.78;20.30;96570.88;172382;28;1173;-47
2021/12/24 00:08:43;;;;;;;;;;;;;;;26.75;20.11;96573.84;172750;28;821;-46
2021/12/24 00:08:49;;;;;;;;;;;;;;;26.75;20.20;96577.31;172384;28;1182;-46
2021/12/24 00:08:55;;;;;;;;;;;;;;;26.78;20.28;96577.03;172612;28;833;-46
2021/12/24 00:09:00;;;;;;;;;;;;;;;26.78;19.98;96574.38;172479;28;1134;-46
2021/12/24 00:09:06;;;;;;;;;;;;;;;26.80;20.06;96568.94;172456;28;881;-47
2021/12/24 00:09:20;;;;;;;;;;;;;;;26.80;20.24;96575.06;172395;28;1178;-47
2021/12/24 00:09:30;;;;;;;;;;;;;;;26.84;20.11;96571.09;172007;28;847;-46
2021/12/24 00:09:36;;;;;;;;;;;;;;;26.85;19.93;96570.13;172354;28;1016;-47
2021/12/24 00:09:42;;;;;;;;;;;;;;;26.81;19.98;96567.94;172697;28;829;-48
2021/12/24 00:09:47;;;;;;;;;;;;;;;26.82;20.06;96570.44;172393;28;1173;-47
2021/12/24 00:09:52;;;;;;;;;;;;;;;26.82;20.29;96569.63;172481;28;1008;-47
2021/12/24 00:09:57;;;;;;;;;;;;;;;26.80;20.19;96568.94;172517;28;1106;-46
2021/12/24 00:10:04;;;;;;;;;;;;;;;26.82;20.15;96569.63;172346;28;1077;-46
2021/12/24 00:10:09;;;;;;;;;;;;;;;26.82;20.16;96567.78;172206;28;1059;-46
2021/12/24 00:10:15;;;;;;;;;;;;;;;26.84;20.27;96570.28;172588;28;821;-47
2021/12/24 00:10:20;;;;;;;;;;;;;;;26.82;20.28;96567.78;172475;28;960;-46
2021/12/24 00:10:26;;;;;;;;;;;;;;;26.80;20.28;96574.22;172688;28;810;-47
2021/12/24 00:10:32;;;;;;;;;;;;;;;26.79;20.13;96575.22;172506;28;1109;-47
2021/12/24 00:10:37;;;;;;;;;;;;;;;26.81;20.03;96568.78;172577;28;885;-46
2021/12/24 00:10:45;;;;;;;;;;;;;;;26.81;20.01;96573.25;172542;28;1106;-47
2021/12/24 00:10:58;;;;;;;;;;;;;;;26.82;20.00;96564.31;171848;28;862;-47
2021/12/24 00:11:03;;;;;;;;;;;;;;;26.84;20.18;96568.47;172869;28;943;-46
2021/12/24 00:11:09;;;;;;;;;;;;;;;26.83;20.13;96569.44;172637;28;1133;-47
2021/12/24 00:11:15;;;;;;;;;;;;;;;26.84;19.99;96567.63;172483;28;803;-49
2021/12/24 00:11:20;;;;;;;;;;;;;;;26.83;20.15;96569.44;172541;28;1174;-47
2021/12/24 00:11:25;;;;;;;;;;;;;;;26.83;20.11;96572.09;172671;28;794;-47
2021/12/24 00:11:31;;;;;;;;;;;;;;;26.85;20.02;96569.28;172490;28;1157;-46
2021/12/24 00:11:36;;;;;;;;;;;;;;;26.85;19.95;96571.94;172598;28;810;-46
2021/12/24 00:11:41;;;;;;;;;;;;;;;26.85;19.92;96577.22;171823;28;5108;-47
2021/12/24 00:11:47;;;;;;;;;;;;;;;26.83;20.23;96568.63;172476;28;858;-46
2021/12/24 00:11:57;;;;;;;;;;;;;;;26.79;20.06;96565.47;172506;28;722;-47
2021/12/24 00:12:10;;;;;;;;;;;;;;;26.76;20.07;96568.41;172576;28;1118;-46
2021/12/24 00:12:19;;;;;;;;;;;;;;;26.77;20.16;96562.13;172554;28;857;-46
2021/12/24 00:12:27;;;;;;;;;;;;;;;26.80;19.97;96563.66;172516;28;873;-46
2021/12/24 00:12:35;;;;;;;;;;;;;;;26.79;20.16;96565.47;172521;28;1169;-48
2021/12/24 00:12:45;;;;;;;;;;;;;;;26.71;20.04;96568.88;172400;28;1030;-46
2021/12/24 00:12:58;;;;;;;;;;;;;;;26.67;20.41;96570.13;171806;28;873;-45
2021/12/24 00:13:09;;;;;;;;;;;;;;;26.68;20.07;96571.78;172575;28;1093;-46
2021/12/24 00:13:15;;;;;;;;;;;;;;;26.68;20.35;96569.16;172487;28;947;-48
2021/12/24 00:13:21;;;;;;;;;;;;;;;26.67;20.38;96569.31;171951;28;849;-46
2021/12/24 00:13:27;;;;;;;;;;;;;;;26.70;20.43;96571.63;171787;28;877;-46
2021/12/24 00:13:35;;;;;;;;;;;;;;;26.71;20.20;96568.03;172391;28;972;-47
2021/12/24 00:13:44;;;;;;;;;;;;;;;26.74;20.13;96575.66;172758;28;1053;-46
2021/12/24 00:13:51;;;;;;;;;;;;;;;26.79;20.28;96569.94;173167;28;845;-46
2021/12/24 00:13:56;;;;;;;;;;;;;;;26.76;19.85;96565.75;172300;28;937;-46
2021/12/24 00:14:04;;;;;;;;;;;;;;;26.79;20.00;96568.13;172786;28;812;-46
2021/12/24 00:14:10;;;;;;;;;;;;;;;26.81;20.13;96563.50;172422;28;845;-46
2021/12/24 00:14:15;;;;;;;;;;;;;;;26.82;20.24;96570.44;172761;28;1134;-46
2021/12/24 00:14:22;;;;;;;;;;;;;;;26.83;20.22;96572.09;173077;28;1187;-45
2021/12/24 00:14:29;;;;;;;;;;;;;;;26.84;20.10;96563.19;172602;28;1606;-46
2021/12/24 00:14:34;;;;;;;;;;;;;;;26.85;20.05;96567.47;172447;28;884;-46
2021/12/24 00:14:44;;;;;;;;;;;;;;;26.86;20.25;96571.81;172752;28;1192;-47
2021/12/24 00:14:53;;;;;;;;;;;;;;;26.85;19.85;96567.47;173064;28;936;-46
2021/12/24 00:15:03;;;;;;;;;;;;;;;26.81;19.98;96568.78;173108;28;896;-46
2021/12/24 00:16:06;;;;;;;;;;;;;;;26.70;20.34;96569.00;170482;28;4294;-46
2021/12/24 00:16:25;;;;;;;;;;;;;;;26.67;20.27;96567.50;171118;28;1054;-46
2021/12/24 00:16:42;;;;;;;;;;;;;;;26.58;20.33;96564.94;171772;28;845;-47
2021/12/24 00:16:52;;;;;;;;;;;;;;;26.65;20.16;96560.72;171596;28;1572;-47
2021/12/24 00:17:02;;;;;;;;;;;;;;;26.66;20.44;96563.19;171820;28;1509;-47
2021/12/24 00:17:07;;;;;;;;;;;;;;;26.61;20.10;96556.69;171598;28;1775;-47
2021/12/24 00:17:15;;;;;;;;;;;;;;;26.60;20.33;96561.16;172472;28;912;-47
2021/12/24 00:17:27;;;;;;;;;;;;;;;26.61;20.26;96560.16;171987;28;827;-47
2021/12/24 00:17:35;;;;;;;;;;;;;;;26.60;20.21;96560.31;171840;28;909;-47
2021/12/24 00:17:40;;;;;;;;;;;;;;;26.58;20.29;96563.13;172593;28;896;-46
2021/12/24 00:17:45;;;;;;;;;;;;;;;26.54;20.26;96553.81;172513;28;821;-46
2021/12/24 00:17:54;;;;;;;;;;;;;;;26.53;20.19;96567.19;172254;28;1454;-46
2021/12/24 00:18:08;;;;;;;;;;;;;;;26.55;20.49;96558.16;172283;28;928;-46
2021/12/24 00:18:39;;;;;;;;;;;;;;;26.58;20.24;96560.47;172572;28;872;-46
2021/12/24 00:18:50;;;;;;;;;;;;;;;26.57;20.23;96560.63;171839;28;865;-47
2021/12/24 00:18:58;;;;;;;;;;;;;;;26.59;20.18;96548.09;172071;28;955;-46
2021/12/24 00:19:33;;;;;;;;;;;;;;;26.63;20.15;96554.75;172239;28;829;-46
2021/12/24 00:20:05;;;;;;;;;;;;;;;26.59;20.33;96551.56;172457;28;849;-47
2021/12/24 00:21:34;;;;;;;;;;;;;;;26.63;20.46;96544.16;174536;28;938;-47
2021/12/24 00:22:40;;;;;;;;;;;;;;;26.58;20.36;96551.72;172627;28;932;-47
2021/12/24 00:35:04;;;;;;;;;;;;;;;26.54;20.47;96547.69;171777;28;941;-46
2021/12/24 00:35:10;;;;;;;;;;;;;;;26.34;20.61;96531.97;172524;28;1511;-47
2021/12/24 00:35:22;;;;;;;;;;;;;;;26.29;20.61;96530.75;172048;28;1094;-47
2021/12/24 00:35:35;;;;;;;;;;;;;;;26.31;20.79;96527.00;172524;28;820;-45
2021/12/24 00:35:40;;;;;;;;;;;;;;;26.32;20.59;96523.38;171790;28;1378;-46
2021/12/24 00:35:46;;;;;;;;;;;;;;;26.35;20.52;96525.69;171323;28;4376;-47
2021/12/24 00:35:51;;;;;;;;;;;;;;;26.38;20.41;96528.06;172109;28;1651;-48
2021/12/24 00:35:56;;;;;;;;;;;;;;;26.41;20.58;96524.28;172424;28;905;-46
2021/12/24 00:36:02;;;;;;;;;;;;;;;26.42;20.43;96526.78;172488;28;1421;-47
2021/12/24 00:36:07;;;;;;;;;;;;;;;26.41;20.63;96525.13;171747;28;1868;-47
2021/12/24 00:36:12;;;;;;;;;;;;;;;26.42;20.69;96525.97;172291;28;789;-47
2021/12/24 00:36:17;;;;;;;;;;;;;;;26.44;20.52;96519.53;172541;28;1245;-46
2021/12/24 00:36:22;;;;;;;;;;;;;;;26.48;20.38;96521.88;172625;28;856;-46
2021/12/24 00:36:28;;;;;;;;;;;;;;;26.49;20.51;96523.53;172472;28;1296;-46
2021/12/24 00:36:33;;;;;;;;;;;;;;;26.51;20.46;96527.69;172594;28;932;-46
2021/12/24 00:36:38;;;;;;;;;;;;;;;26.51;20.58;96517.13;172505;28;1161;-47
2021/12/24 00:36:43;;;;;;;;;;;;;;;26.52;20.30;96523.22;172567;28;801;-46
2021/12/24 00:36:48;;;;;;;;;;;;;;;26.55;20.31;96522.94;172462;28;1039;-46
2021/12/24 00:36:54;;;;;;;;;;;;;;;26.56;20.48;96522.78;172515;28;862;-47
2021/12/24 00:36:59;;;;;;;;;;;;;;;26.56;20.53;96524.59;172600;28;471;-46
2021/12/24 00:37:04;;;;;;;;;;;;;;;26.57;20.56;96520.97;172444;28;1279;-46
2021/12/24 00:37:09;;;;;;;;;;;;;;;26.57;20.50;96518.31;172471;28;791;-46
2021/12/24 00:37:16;;;;;;;;;;;;;;;26.58;20.49;96526.09;172563;28;1209;-47
2021/12/24 00:37:22;;;;;;;;;;;;;;;26.59;20.22;96524.28;172497;28;829;-45
2021/12/24 00:37:27;;;;;;;;;;;;;;;26.62;20.52;96523.97;172451;28;1161;-47
2021/12/24 00:37:32;;;;;;;;;;;;;;;26.61;20.16;96523.13;172529;28;864;-47
2021/12/24 00:37:44;;;;;;;;;;;;;;;26.60;20.30;96521.47;172416;28;1110;-46
2021/12/24 00:37:49;;;;;;;;;;;;;;;26.64;20.45;96527.31;172385;28;979;-47
2021/12/24 00:37:55;;;;;;;;;;;;;;;26.62;20.48;96523.97;172439;28;864;-46
2021/12/24 00:38:03;;;;;;;;;;;;;;;26.63;20.13;96525.66;172603;28;1106;-47
2021/12/24 00:38:10;;;;;;;;;;;;;;;26.62;20.21;96523.97;172620;28;829;-48
2021/12/24 00:38:15;;;;;;;;;;;;;;;26.63;20.10;96525.66;172627;28;866;-46
2021/12/24 00:38:20;;;;;;;;;;;;;;;26.59;20.52;96521.63;172513;28;913;-45
2021/12/24 00:38:26;;;;;;;;;;;;;;;26.56;20.30;96524.59;172550;28;1074;-46
2021/12/24 00:38:31;;;;;;;;;;;;;;;26.58;20.47;96522.63;172595;28;865;-48
2021/12/24 00:38:36;;;;;;;;;;;;;;;26.55;20.55;96517.66;172479;28;1110;-47
2021/12/24 00:38:41;;;;;;;;;;;;;;;26.56;20.41;96520.13;171934;28;885;-47
2021/12/24 00:38:46;;;;;;;;;;;;;;;26.56;20.55;96521.97;172094;28;959;-48
2021/12/24 00:38:52;;;;;;;;;;;;;;;26.58;20.27;96514.69;172416;28;790;-47
2021/12/24 00:38:57;;;;;;;;;;;;;;;26.60;20.46;96518.84;172577;28;853;-46
2021/12/24 00:39:02;;;;;;;;;;;;;;;26.61;20.15;96514.38;172292;28;990;-47
2021/12/24 00:39:07;;;;;;;;;;;;;;;26.64;20.25;96522.03;172553;28;909;-46
2021/12/24 00:39:13;;;;;;;;;;;;;;;26.63;20.15;96518.56;172617;28;1225;-45
2021/12/24 00:39:18;;;;;;;;;;;;;;;26.65;20.33;96523.69;172473;28;1112;-48
2021/12/24 00:39:23;;;;;;;;;;;;;;;26.63;20.36;96520.38;172526;28;1164;-46
2021/12/24 00:39:28;;;;;;;;;;;;;;;26.65;20.28;96518.41;172623;28;876;-46
2021/12/24 00:39:39;;;;;;;;;;;;;;;26.67;20.46;96519.06;172396;28;968;-46
2021/12/24 00:39:50;;;;;;;;;;;;;;;26.61;20.22;96519.66;172625;28;861;-47
2021/12/24 00:40:10;;;;;;;;;;;;;;;26.59;20.30;96516.34;171593;28;4315;-45
2021/12/24 00:40:18;;;;;;;;;;;;;;;26.62;20.35;96519.53;172496;28;905;-47
2021/12/24 00:40:23;;;;;;;;;;;;;;;26.64;20.39;96519.38;172536;28;1223;-47
2021/12/24 00:40:29;;;;;;;;;;;;;;;26.62;20.39;96513.38;172527;28;782;-46
2021/12/24 00:40:36;;;;;;;;;;;;;;;26.62;20.27;96519.53;172461;28;1169;-47
2021/12/24 00:40:42;;;;;;;;;;;;;;;26.63;20.08;96521.19;172642;28;976;-46
2021/12/24 00:40:48;;;;;;;;;;;;;;;26.65;20.33;96519.22;172397;28;1149;-46
2021/12/24 00:40:55;;;;;;;;;;;;;;;26.65;20.26;96526.31;172535;28;825;-47
2021/12/24 00:41:00;;;;;;;;;;;;;;;26.65;20.00;96524.50;172399;28;928;-46
2021/12/24 00:41:05;;;;;;;;;;;;;;;26.63;20.27;96523.84;172614;28;885;-47
2021/12/24 00:41:13;;;;;;;;;;;;;;;26.62;20.43;96521.31;172591;28;1224;-47
2021/12/24 00:41:18;;;;;;;;;;;;;;;26.65;20.17;96523.69;172536;28;860;-46
2021/12/24 00:41:24;;;;;;;;;;;;;;;26.66;20.04;96520.88;172588;28;1263;-46
2021/12/24 00:41:29;;;;;;;;;;;;;;;26.70;20.25;96518.75;172101;28;900;-47
2021/12/24 00:41:35;;;;;;;;;;;;;;;26.65;20.35;96515.75;172566;28;1097;-45
2021/12/24 00:41:40;;;;;;;;;;;;;;;26.63;20.48;96521.19;172652;28;817;-47
2021/12/24 00:41:45;;;;;;;;;;;;;;;26.63;20.14;96523.00;172430;28;1159;-46
2021/12/24 00:41:50;;;;;;;;;;;;;;;26.65;20.42;96523.69;172499;28;786;-47
2021/12/24 00:41:55;;;;;;;;;;;;;;;26.70;20.17;96521.38;172489;28;970;-47
2021/12/24 00:42:00;;;;;;;;;;;;;;;26.73;20.07;96518.47;172427;28;946;-47
2021/12/24 00:42:06;;;;;;;;;;;;;;;26.71;19.96;96518.63;172586;28;1145;-46
2021/12/24 00:42:11;;;;;;;;;;;;;;;26.71;20.31;96518.63;172575;28;818;-46
2021/12/24 00:42:17;;;;;;;;;;;;;;;26.71;20.30;96512.50;172578;28;794;-46
2021/12/24 00:42:22;;;;;;;;;;;;;;;26.68;20.37;96502.22;172537;28;1165;-46
2021/12/24 00:42:27;;;;;;;;;;;;;;;26.73;20.24;96522.91;172582;28;747;-46
2021/12/24 00:42:32;;;;;;;;;;;;;;;26.75;20.17;96518.31;172578;28;1153;-47
2021/12/24 00:42:38;;;;;;;;;;;;;;;26.77;20.33;96521.63;172589;28;837;-46
2021/12/24 00:42:45;;;;;;;;;;;;;;;26.77;20.07;96527.72;172385;28;1121;-46
2021/12/24 00:42:51;;;;;;;;;;;;;;;26.78;20.00;96515.34;172330;28;1914;-47
2021/12/24 00:42:56;;;;;;;;;;;;;;;26.77;20.16;96522.44;172382;28;1223;-47
2021/12/24 00:43:01;;;;;;;;;;;;;;;26.77;20.04;96518.97;172410;28;1001;-47
2021/12/24 00:43:07;;;;;;;;;;;;;;;26.77;20.13;96521.63;172563;28;1161;-47
2021/12/24 00:43:12;;;;;;;;;;;;;;;26.72;20.30;96522.09;172443;28;1019;-47
2021/12/24 00:43:17;;;;;;;;;;;;;;;26.73;19.96;96523.75;172419;28;1215;-47
2021/12/24 00:43:23;;;;;;;;;;;;;;;26.73;19.92;96513.16;172563;28;793;-46
2021/12/24 00:43:28;;;;;;;;;;;;;;;26.77;20.03;96518.97;172460;28;778;-47
2021/12/24 00:43:33;;;;;;;;;;;;;;;26.77;20.27;96522.44;171872;28;869;-47
2021/12/24 00:43:38;;;;;;;;;;;;;;;26.75;20.10;96507.72;171894;28;747;-47
2021/12/24 00:43:44;;;;;;;;;;;;;;;26.78;20.07;96517.97;171747;28;4237;-46
2021/12/24 00:43:49;;;;;;;;;;;;;;;26.80;20.28;96516.88;172347;28;1458;-47
2021/12/24 00:43:54;;;;;;;;;;;;;;;26.82;20.29;96519.34;172297;28;1137;-47
2021/12/24 00:43:59;;;;;;;;;;;;;;;26.81;19.94;96513.22;171687;28;1101;-47
2021/12/24 00:44:04;;;;;;;;;;;;;;;26.81;19.93;96518.53;172517;28;1087;-46
2021/12/24 00:44:09;;;;;;;;;;;;;;;26.77;20.38;96516.31;172449;28;791;-47
2021/12/24 00:44:15;;;;;;;;;;;;;;;26.80;20.25;96513.38;172467;28;884;-45
2021/12/24 00:44:20;;;;;;;;;;;;;;;26.82;19.99;96517.53;172416;28;1309;-47
2021/12/24 00:44:25;;;;;;;;;;;;;;;26.80;20.25;96516.88;172391;28;738;-46
2021/12/24 00:44:30;;;;;;;;;;;;;;;26.80;20.19;96510.75;172449;28;1099;-46
2021/12/24 00:44:35;;;;;;;;;;;;;;;26.80;20.18;96513.38;172473;28;853;-47
2021/12/24 00:44:41;;;;;;;;;;;;;;;26.81;19.85;96517.69;172197;28;824;-46
2021/12/24 00:44:46;;;;;;;;;;;;;;;26.81;20.00;96515.03;172013;28;968;-46
2021/12/24 00:44:51;;;;;;;;;;;;;;;26.81;19.86;96520.34;172393;28;1193;-47
2021/12/24 00:44:56;;;;;;;;;;;;;;;26.80;20.05;96511.56;172425;28;869;-46
2021/12/24 00:45:02;;;;;;;;;;;;;;;26.73;20.04;96518.47;172442;28;1234;-47
2021/12/24 00:45:07;;;;;;;;;;;;;;;26.76;20.14;96510.22;171850;28;1012;-48
2021/12/24 00:45:13;;;;;;;;;;;;;;;26.75;19.91;96507.72;172279;28;1504;-46
2021/12/24 00:45:20;;;;;;;;;;;;;;;26.67;20.01;96514.59;171527;28;1380;-47
2021/12/24 00:45:29;;;;;;;;;;;;;;;26.67;20.19;96513.78;171302;28;1523;-47
2021/12/24 00:45:39;;;;;;;;;;;;;;;26.64;20.28;96514.09;172378;28;864;-46
2021/12/24 00:45:45;;;;;;;;;;;;;;;26.68;20.07;96510.13;171646;28;1524;-46
2021/12/24 00:45:50;;;;;;;;;;;;;;;26.68;20.02;96503.03;172600;28;1006;-46
2021/12/24 00:45:55;;;;;;;;;;;;;;;26.69;20.31;96509.16;173108;28;790;-46
2021/12/24 00:46:00;;;;;;;;;;;;;;;26.65;20.09;96511.28;172877;28;1117;-46
2021/12/24 00:46:06;;;;;;;;;;;;;;;26.67;20.32;96513.78;172086;28;1793;-47
2021/12/24 00:46:11;;;;;;;;;;;;;;;26.70;20.00;96516.09;172609;28;1626;-47
2021/12/24 00:46:16;;;;;;;;;;;;;;;26.70;20.28;96516.09;173151;28;1126;-46
2021/12/24 00:46:21;;;;;;;;;;;;;;;26.70;20.01;96506.38;173066;28;809;-46
2021/12/24 00:46:26;;;;;;;;;;;;;;;26.70;20.01;96513.47;173105;28;1416;-46
2021/12/24 00:46:33;;;;;;;;;;;;;;;26.71;20.06;96512.50;173126;28;794;-46
2021/12/24 00:46:39;;;;;;;;;;;;;;;26.70;20.44;96511.69;173144;28;1105;-46
2021/12/24 00:46:44;;;;;;;;;;;;;;;26.70;20.29;96513.47;173256;28;900;-48
2021/12/24 00:46:49;;;;;;;;;;;;;;;26.71;20.19;96507.22;172957;28;1069;-46
2021/12/24 00:46:54;;;;;;;;;;;;;;;26.73;20.27;96510.53;172742;28;1503;-48
2021/12/24 00:47:01;;;;;;;;;;;;;;;26.75;20.23;96502.44;172715;28;942;-47
2021/12/24 00:47:06;;;;;;;;;;;;;;;26.75;20.11;96505.06;172475;28;849;-47
2021/12/24 00:47:11;;;;;;;;;;;;;;;26.75;20.26;96516.47;172489;28;1102;-47
2021/12/24 00:47:17;;;;;;;;;;;;;;;26.76;20.11;96504.91;173161;28;884;-46
2021/12/24 00:47:22;;;;;;;;;;;;;;;26.76;20.35;96507.56;173095;28;849;-46
2021/12/24 00:47:27;;;;;;;;;;;;;;;26.76;20.03;96507.56;173173;28;1219;-47
2021/12/24 00:47:32;;;;;;;;;;;;;;;26.74;20.30;96514.81;173023;28;790;-46
2021/12/24 00:47:38;;;;;;;;;;;;;;;26.74;20.29;96503.41;173132;28;1109;-48
2021/12/24 00:47:43;;;;;;;;;;;;;;;26.72;20.39;96508.88;172509;28;4166;-46
2021/12/24 00:47:48;;;;;;;;;;;;;;;26.73;20.30;96504.41;172336;28;976;-47
2021/12/24 00:47:54;;;;;;;;;;;;;;;26.76;20.03;96502.28;172529;28;999;-47
2021/12/24 00:47:59;;;;;;;;;;;;;;;26.78;20.22;96500.31;171828;28;1110;-47
2021/12/24 00:48:05;;;;;;;;;;;;;;;26.76;20.26;96506.72;171822;28;1368;-47
2021/12/24 00:48:10;;;;;;;;;;;;;;;26.75;20.23;96503.25;171915;28;892;-47
2021/12/24 00:48:16;;;;;;;;;;;;;;;26.77;19.95;96497.81;171829;28;786;-47
2021/12/24 00:48:22;;;;;;;;;;;;;;;26.79;20.18;96509.91;172836;28;1008;-47
2021/12/24 00:48:27;;;;;;;;;;;;;;;26.76;20.11;96504.91;173166;28;1181;-47
2021/12/24 00:48:32;;;;;;;;;;;;;;;26.74;20.29;96500.78;173063;28;738;-47
2021/12/24 00:48:37;;;;;;;;;;;;;;;26.72;20.22;96495.66;173250;28;1110;-46
2021/12/24 00:48:43;;;;;;;;;;;;;;;26.73;20.31;96504.41;173199;28;801;-47
2021/12/24 00:48:49;;;;;;;;;;;;;;;26.73;20.26;96499.94;172903;28;1033;-48
2021/12/24 00:48:56;;;;;;;;;;;;;;;26.70;20.08;96497.59;173036;28;896;-47
2021/12/24 00:49:02;;;;;;;;;;;;;;;26.66;20.09;96505.00;172552;28;1156;-48
2021/12/24 00:49:07;;;;;;;;;;;;;;;26.65;20.06;96499.88;172629;28;837;-46
2021/12/24 00:49:12;;;;;;;;;;;;;;;26.68;20.00;96497.75;172868;28;1169;-47
2021/12/24 00:49:18;;;;;;;;;;;;;;;26.68;20.22;96497.75;173031;28;925;-48
2021/12/24 00:49:23;;;;;;;;;;;;;;;26.69;20.03;96502.06;173132;28;1105;-47
2021/12/24 00:49:28;;;;;;;;;;;;;;;26.70;20.18;96494.94;173146;28;1360;-47
2021/12/24 00:49:33;;;;;;;;;;;;;;;26.66;20.09;96504.19;172986;28;1132;-46
2021/12/24 00:49:39;;;;;;;;;;;;;;;26.65;20.10;96502.53;173199;28;774;-47
2021/12/24 00:49:44;;;;;;;;;;;;;;;26.68;20.41;96496.91;173123;28;857;-48
2021/12/24 00:49:49;;;;;;;;;;;;;;;26.71;20.26;96494.00;172957;28;1125;-46